createdAt,value
2023-03-01T00:01:28.676Z,53.40
2023-03-01T00:03:56.651Z,53.72
2023-03-01T00:06:23.964Z,53.68
2023-03-01T00:08:51.523Z,53.54
2023-03-01T00:11:24.474Z,53.29
2023-03-01T00:13:53.964Z,52.96
2023-03-01T00:16:30.046Z,52.98
2023-03-01T00:18:58.608Z,53.08
2023-03-01T00:21:26.646Z,53.04
2023-03-01T00:23:54.561Z,53.22
2023-03-01T00:26:23.290Z,52.89
2023-03-01T00:28:50.657Z,53.06
2023-03-01T00:31:20.841Z,52.79
2023-03-01T00:33:48.170Z,53.03
2023-03-01T00:36:16.728Z,52.74
2023-03-01T00:38:46.653Z,52.60
2023-03-01T00:41:16.428Z,52.68
2023-03-01T00:43:44.399Z,53.11
2023-03-01T00:46:17.574Z,52.93
2023-03-01T00:48:45.571Z,52.60
2023-03-01T00:51:21.067Z,53.05
2023-03-01T00:53:48.780Z,52.83
2023-03-01T00:56:16.417Z,53.13
2023-03-01T00:58:44.707Z,53.08
2023-03-01T01:01:18.736Z,52.87
2023-03-01T01:03:53.747Z,53.15
2023-03-01T01:06:23.367Z,53.01
2023-03-01T01:08:51.514Z,52.90
2023-03-01T01:11:20.675Z,52.95
2023-03-01T01:13:48.701Z,52.90
2023-03-01T01:16:17.815Z,53.00
2023-03-01T01:18:45.963Z,53.07
2023-03-01T01:21:16.570Z,52.86
2023-03-01T01:23:45.023Z,52.68
2023-03-01T01:26:19.292Z,52.54
2023-03-01T01:28:47.130Z,52.83
2023-03-01T01:31:14.685Z,52.63
2023-03-01T01:33:42.208Z,52.97
2023-03-01T01:36:10.026Z,52.94
2023-03-01T01:38:38.506Z,52.98
2023-03-01T01:41:07.182Z,53.02
2023-03-01T01:43:40.379Z,52.81
2023-03-01T01:46:25.885Z,53.11
2023-03-01T01:49:01.768Z,53.02
2023-03-01T01:51:39.607Z,52.88
2023-03-01T01:54:18.612Z,53.22
2023-03-01T01:56:51.530Z,53.23
2023-03-01T01:59:18.587Z,53.24
2023-03-01T02:01:45.682Z,53.23
2023-03-01T02:04:12.947Z,52.98
2023-03-01T02:06:51.564Z,52.63
2023-03-01T02:09:21.965Z,53.52
2023-03-01T02:11:51.699Z,52.92
2023-03-01T02:14:18.856Z,53.16
2023-03-01T02:16:46.190Z,53.08
2023-03-01T02:19:28.822Z,52.98
2023-03-01T02:22:12.447Z,52.33
2023-03-01T02:25:19.477Z,53.07
2023-03-01T02:27:49.465Z,53.34
2023-03-01T02:30:16.866Z,53.15
2023-03-01T02:32:44.900Z,53.01
2023-03-01T02:35:16.053Z,53.30
2023-03-01T02:37:44.428Z,53.23
2023-03-01T02:40:20.036Z,53.41
2023-03-01T02:42:53.135Z,53.21
2023-03-01T02:45:20.376Z,53.50
2023-03-01T02:47:47.372Z,53.28
2023-03-01T02:50:44.771Z,53.77
2023-03-01T02:53:26.916Z,53.70
2023-03-01T02:55:54.271Z,53.48
2023-03-01T02:58:21.603Z,53.34
2023-03-01T03:00:50.549Z,53.68
2023-03-01T03:03:21.553Z,53.80
2023-03-01T03:05:49.523Z,53.46
2023-03-01T03:08:22.818Z,54.09
2023-03-01T03:10:49.812Z,54.01
2023-03-01T03:13:17.099Z,53.63
2023-03-01T03:15:44.754Z,54.09
2023-03-01T03:18:14.675Z,53.91
2023-03-01T03:20:43.760Z,54.09
2023-03-01T03:23:11.248Z,53.98
2023-03-01T03:25:38.978Z,53.88
2023-03-01T03:28:13.515Z,54.20
2023-03-01T03:30:42.474Z,54.30
2023-03-01T03:33:13.299Z,53.88
2023-03-01T03:35:49.200Z,54.09
2023-03-01T03:38:20.188Z,54.00
2023-03-01T03:40:53.182Z,54.22
2023-03-01T03:43:22.478Z,54.47
2023-03-01T03:45:51.264Z,54.32
2023-03-01T03:48:19.530Z,54.26
2023-03-01T03:50:53.994Z,54.58
2023-03-01T03:53:22.667Z,54.66
2023-03-01T03:55:50.515Z,54.88
2023-03-01T03:58:20.881Z,54.92
2023-03-01T04:00:54.491Z,54.62
2023-03-01T04:03:21.856Z,54.60
2023-03-01T04:05:50.899Z,54.74
2023-03-01T04:08:23.121Z,54.43
2023-03-01T04:10:57.948Z,54.62
2023-03-01T04:13:26.403Z,55.03
2023-03-01T04:15:55.181Z,54.87
2023-03-01T04:18:24.880Z,55.02
2023-03-01T04:20:53.386Z,55.19
2023-03-01T04:23:22.123Z,54.98
2023-03-01T04:25:58.109Z,54.87
2023-03-01T04:28:41.495Z,54.94
2023-03-01T04:31:14.584Z,54.98
2023-03-01T04:33:46.905Z,55.18
2023-03-01T04:36:16.049Z,55.31
2023-03-01T04:38:43.250Z,55.17
2023-03-01T04:41:12.311Z,55.19
2023-03-01T04:43:39.548Z,55.28
2023-03-01T04:46:10.432Z,55.36
2023-03-01T04:48:39.334Z,55.11
2023-03-01T04:51:07.347Z,55.24
2023-03-01T04:53:37.253Z,55.48
2023-03-01T04:56:04.617Z,55.00
2023-03-01T04:58:31.765Z,54.61
2023-03-01T05:00:58.772Z,55.10
2023-03-01T05:03:26.065Z,55.08
2023-03-01T05:05:54.147Z,55.12
2023-03-01T05:08:21.846Z,55.33
2023-03-01T05:10:54.275Z,55.38
2023-03-01T05:13:22.587Z,55.10
2023-03-01T05:15:57.801Z,55.29
2023-03-01T05:18:29.417Z,55.00
2023-03-01T05:21:02.444Z,55.33
2023-03-01T05:23:29.517Z,55.68
2023-03-01T05:26:00.638Z,55.55
2023-03-01T05:28:29.356Z,55.55
2023-03-01T05:30:56.944Z,55.45
2023-03-01T05:33:25.002Z,55.37
2023-03-01T05:35:53.014Z,55.33
2023-03-01T05:38:21.222Z,55.28
2023-03-01T05:40:49.822Z,55.19
2023-03-01T05:43:19.161Z,54.98
2023-03-01T05:45:46.633Z,54.75
2023-03-01T05:48:14.772Z,54.36
2023-03-01T05:50:44.264Z,54.31
2023-03-01T05:53:15.921Z,54.57
2023-03-01T05:55:44.141Z,54.52
2023-03-01T05:58:15.161Z,54.50
2023-03-01T06:00:44.101Z,53.99
2023-03-01T06:03:15.468Z,54.36
2023-03-01T06:05:43.393Z,54.40
2023-03-01T06:08:12.055Z,54.10
2023-03-01T06:10:39.257Z,54.16
2023-03-01T06:13:06.574Z,54.71
2023-03-01T06:15:33.610Z,53.91
2023-03-01T06:18:00.730Z,53.97
2023-03-01T06:20:29.654Z,53.82
2023-03-01T06:22:57.191Z,54.16
2023-03-01T06:25:25.662Z,54.63
2023-03-01T06:27:53.750Z,54.21
2023-03-01T06:30:22.906Z,54.08
2023-03-01T06:32:50.868Z,53.71
2023-03-01T06:35:19.629Z,53.67
2023-03-01T06:37:48.647Z,53.24
2023-03-01T06:40:16.430Z,53.46
2023-03-01T06:42:45.256Z,53.25
2023-03-01T06:45:12.780Z,52.47
2023-03-01T06:47:39.877Z,52.46
2023-03-01T06:50:07.433Z,52.49
2023-03-01T06:52:34.503Z,52.86
2023-03-01T06:55:02.312Z,51.79
2023-03-01T06:57:30.499Z,52.58
2023-03-01T06:59:57.477Z,51.89
2023-03-01T07:02:24.764Z,51.34
2023-03-01T07:04:52.670Z,50.75
2023-03-01T07:07:20.200Z,48.92
2023-03-01T07:09:48.362Z,47.93
2023-03-01T07:12:15.429Z,48.26
2023-03-01T07:14:42.687Z,47.32
2023-03-01T07:17:09.734Z,47.25
2023-03-01T07:19:36.783Z,47.80
2023-03-01T07:22:05.514Z,47.37
2023-03-01T07:24:32.645Z,47.36
2023-03-01T07:26:59.675Z,47.42
2023-03-01T07:29:26.696Z,45.58
2023-03-01T07:31:53.950Z,46.04
2023-03-01T07:34:21.201Z,46.65
2023-03-01T07:36:48.668Z,46.18
2023-03-01T07:39:16.452Z,44.92
2023-03-01T07:41:44.501Z,45.00
2023-03-01T07:44:11.929Z,44.56
2023-03-01T07:46:38.900Z,44.91
2023-03-01T07:49:06.525Z,44.75
2023-03-01T07:51:33.678Z,44.81
2023-03-01T07:54:00.702Z,42.64
2023-03-01T07:56:27.850Z,42.79
2023-03-01T07:58:54.827Z,40.81
2023-03-01T08:01:22.744Z,39.17
2023-03-01T08:03:49.839Z,39.78
2023-03-01T08:06:18.655Z,38.76
2023-03-01T08:08:46.461Z,38.34
2023-03-01T08:11:15.777Z,38.62
2023-03-01T08:13:44.120Z,39.63
2023-03-01T08:16:13.796Z,38.65
2023-03-01T08:18:41.160Z,39.68
2023-03-01T08:21:13.953Z,38.96
2023-03-01T08:23:41.511Z,39.17
2023-03-01T08:26:15.310Z,38.88
2023-03-01T08:28:42.840Z,39.23
2023-03-01T08:31:38.946Z,38.61
2023-03-01T08:34:11.670Z,38.08
2023-03-01T08:36:44.252Z,36.38
2023-03-01T08:39:13.562Z,35.20
2023-03-01T08:41:41.507Z,34.75
2023-03-01T08:44:09.022Z,33.17
2023-03-01T08:46:39.370Z,33.73
2023-03-01T08:49:09.833Z,34.07
2023-03-01T08:51:39.974Z,34.31
2023-03-01T08:54:11.377Z,34.55
2023-03-01T08:56:38.503Z,34.29
2023-03-01T08:59:05.956Z,32.69
2023-03-01T09:01:32.982Z,32.41
2023-03-01T09:04:00.474Z,32.09
2023-03-01T09:06:27.579Z,31.59
2023-03-01T09:08:55.906Z,31.67
2023-03-01T09:11:23.238Z,31.71
2023-03-01T09:13:50.884Z,30.68
2023-03-01T09:16:20.320Z,29.45
2023-03-01T09:18:51.701Z,28.36
2023-03-01T09:21:37.177Z,27.34
2023-03-01T09:24:07.334Z,26.75
2023-03-01T09:26:34.465Z,27.41
2023-03-01T09:29:01.767Z,27.14
2023-03-01T09:31:28.795Z,26.69
2023-03-01T09:33:56.019Z,26.85
2023-03-01T09:36:26.527Z,27.49
2023-03-01T09:38:56.562Z,28.52
2023-03-01T09:41:50.630Z,26.55
2023-03-01T09:44:32.839Z,28.64
2023-03-01T09:47:01.040Z,29.44
2023-03-01T09:49:41.373Z,30.66
2023-03-01T09:52:30.518Z,31.17
2023-03-01T09:55:00.351Z,31.72
2023-03-01T09:57:36.554Z,32.46
2023-03-01T10:00:45.880Z,32.51
2023-03-01T10:03:44.889Z,33.57
2023-03-01T10:06:18.634Z,33.61
2023-03-01T10:08:59.457Z,35.00
2023-03-01T10:11:39.473Z,34.48
2023-03-01T10:14:14.111Z,35.38
2023-03-01T10:16:51.491Z,35.78
2023-03-01T10:19:25.628Z,36.03
2023-03-01T10:21:53.452Z,36.27
2023-03-01T10:24:22.763Z,36.55
2023-03-01T10:27:05.778Z,36.38
2023-03-01T10:29:42.245Z,36.18
2023-03-01T10:32:12.322Z,36.51
2023-03-01T10:34:39.567Z,36.48
2023-03-01T10:37:16.307Z,37.41
2023-03-01T10:40:10.689Z,38.09
2023-03-01T10:42:48.728Z,37.15
2023-03-01T10:45:32.327Z,37.30
2023-03-01T10:48:29.379Z,36.86
2023-03-01T10:50:59.236Z,37.40
2023-03-01T10:53:44.496Z,37.21
2023-03-01T10:56:17.154Z,36.54
2023-03-01T10:59:01.957Z,37.49
2023-03-01T11:01:34.041Z,38.01
2023-03-01T11:04:19.561Z,38.03
2023-03-01T11:07:00.078Z,37.92
2023-03-01T11:09:33.279Z,37.96
2023-03-01T11:12:01.976Z,38.11
2023-03-01T11:14:36.773Z,38.62
2023-03-01T11:17:16.649Z,38.55
2023-03-01T11:19:54.221Z,38.42
2023-03-01T11:22:29.024Z,38.56
2023-03-01T11:25:09.289Z,39.16
2023-03-01T11:27:43.043Z,38.99
2023-03-01T11:30:42.573Z,39.44
2023-03-01T11:33:09.572Z,39.55
2023-03-01T11:35:48.054Z,39.23
2023-03-01T11:38:26.267Z,39.66
2023-03-01T11:41:06.955Z,39.18
2023-03-01T11:43:38.250Z,39.09
2023-03-01T11:46:12.586Z,39.79
2023-03-01T11:49:17.218Z,39.56
2023-03-01T11:52:13.501Z,40.05
2023-03-01T11:54:43.301Z,40.19
2023-03-01T11:57:25.058Z,39.94
2023-03-01T12:00:12.709Z,40.27
2023-03-01T12:02:53.237Z,39.92
2023-03-01T12:05:44.633Z,40.05
2023-03-01T12:08:42.465Z,39.89
2023-03-01T12:11:46.973Z,40.06
2023-03-01T12:14:16.798Z,40.02
2023-03-01T12:16:43.800Z,40.32
2023-03-01T12:19:25.571Z,40.32
2023-03-01T12:21:58.832Z,40.84
2023-03-01T12:24:33.662Z,40.89
2023-03-01T12:27:20.053Z,41.92
2023-03-01T12:29:59.037Z,41.68
2023-03-01T12:32:55.414Z,41.66
2023-03-01T12:36:00.034Z,41.47
2023-03-01T12:38:46.821Z,41.24
2023-03-01T12:41:31.542Z,40.83
2023-03-01T12:44:46.823Z,40.48
2023-03-01T12:48:10.833Z,40.67
2023-03-01T12:50:43.931Z,41.01
2023-03-01T12:53:37.067Z,40.80
2023-03-01T12:56:10.942Z,41.36
2023-03-01T12:58:59.055Z,41.17
2023-03-01T13:01:50.649Z,40.85
2023-03-01T13:04:17.671Z,41.03
2023-03-01T13:07:14.804Z,41.43
2023-03-01T13:09:52.192Z,40.99
2023-03-01T13:12:50.040Z,41.38
2023-03-01T13:15:37.813Z,41.45
2023-03-01T13:18:16.873Z,41.72
2023-03-01T13:20:44.060Z,41.62
2023-03-01T13:23:23.185Z,42.03
2023-03-01T13:26:13.714Z,42.35
2023-03-01T13:28:45.079Z,41.95
2023-03-01T13:31:32.280Z,42.57
2023-03-01T13:34:08.462Z,42.49
2023-03-01T13:36:37.257Z,42.83
2023-03-01T13:39:27.527Z,42.76
2023-03-01T13:41:57.158Z,42.49
2023-03-01T13:44:24.935Z,43.04
2023-03-01T13:47:16.140Z,42.57
2023-03-01T13:49:51.691Z,42.91
2023-03-01T13:52:34.088Z,42.61
2023-03-01T13:55:03.030Z,42.59
2023-03-01T13:57:42.456Z,43.26
2023-03-01T14:00:28.544Z,42.97
2023-03-01T14:03:14.076Z,43.02
2023-03-01T14:05:43.607Z,43.39
2023-03-01T14:08:25.888Z,43.35
2023-03-01T14:11:07.628Z,43.20
2023-03-01T14:13:55.993Z,43.19
2023-03-01T14:16:33.035Z,43.42
2023-03-01T14:19:32.606Z,43.34
2023-03-01T14:22:16.281Z,43.79
2023-03-01T14:24:50.358Z,44.11
2023-03-01T14:27:18.373Z,43.91
2023-03-01T14:29:56.675Z,45.13
2023-03-01T14:32:28.754Z,44.60
2023-03-01T14:34:57.358Z,44.47
2023-03-01T14:37:28.796Z,44.87
2023-03-01T14:39:57.670Z,44.44
2023-03-01T14:42:28.441Z,44.78
2023-03-01T14:44:58.352Z,45.59
2023-03-01T14:47:32.010Z,44.88
2023-03-01T14:50:22.988Z,46.31
2023-03-01T14:52:53.287Z,45.42
2023-03-01T14:55:28.681Z,45.75
2023-03-01T14:57:55.751Z,45.62
2023-03-01T15:00:28.899Z,45.41
2023-03-01T15:03:00.017Z,45.52
2023-03-01T15:05:33.536Z,45.58
2023-03-01T15:08:03.338Z,46.18
2023-03-01T15:10:36.970Z,45.79
2023-03-01T15:13:24.774Z,46.17
2023-03-01T15:16:01.431Z,46.01
2023-03-01T15:18:30.477Z,46.29
2023-03-01T15:21:25.678Z,47.19
2023-03-01T15:23:56.603Z,46.85
2023-03-01T15:26:26.957Z,46.63
2023-03-01T15:28:59.172Z,47.14
2023-03-01T15:31:36.393Z,47.49
2023-03-01T15:34:38.070Z,46.79
2023-03-01T15:37:07.429Z,47.17
2023-03-01T15:39:38.483Z,47.01
2023-03-01T15:42:11.203Z,47.21
2023-03-01T15:44:48.650Z,47.45
2023-03-01T15:47:31.674Z,48.03
2023-03-01T15:50:00.821Z,47.77
2023-03-01T15:52:37.893Z,48.29
2023-03-01T15:55:07.563Z,48.17
2023-03-01T15:57:34.517Z,48.05
2023-03-01T16:00:01.690Z,48.60
2023-03-01T16:02:31.193Z,47.93
2023-03-01T16:04:58.242Z,48.17
2023-03-01T16:07:25.369Z,47.54
2023-03-01T16:09:52.353Z,48.20
2023-03-01T16:12:21.590Z,47.94
2023-03-01T16:14:49.709Z,48.95
2023-03-01T16:17:16.870Z,49.07
2023-03-01T16:19:43.982Z,48.67
2023-03-01T16:22:11.935Z,48.16
2023-03-01T16:24:38.945Z,48.43
2023-03-01T16:27:05.957Z,47.68
2023-03-01T16:29:32.971Z,47.70
2023-03-01T16:32:03.539Z,48.30
2023-03-01T16:34:30.874Z,48.06
2023-03-01T16:36:57.889Z,48.31
2023-03-01T16:39:24.942Z,48.62
2023-03-01T16:41:51.948Z,47.98
2023-03-01T16:44:18.951Z,48.86
2023-03-01T16:46:46.247Z,47.97
2023-03-01T16:49:13.293Z,48.09
2023-03-01T16:51:40.303Z,48.13
2023-03-01T16:54:07.367Z,48.82
2023-03-01T16:56:36.842Z,48.75
2023-03-01T16:59:05.803Z,48.79
2023-03-01T17:01:42.228Z,48.87
2023-03-01T17:04:13.258Z,48.58
2023-03-01T17:06:40.322Z,48.37
2023-03-01T17:09:07.394Z,48.65
2023-03-01T17:11:34.701Z,48.61
2023-03-01T17:14:01.807Z,48.86
2023-03-01T17:16:29.054Z,49.32
2023-03-01T17:18:56.191Z,48.98
2023-03-01T17:21:23.355Z,48.79
2023-03-01T17:23:50.554Z,48.51
2023-03-01T17:26:18.064Z,49.27
2023-03-01T17:28:45.181Z,48.79
2023-03-01T17:31:12.316Z,49.72
2023-03-01T17:33:39.314Z,49.98
2023-03-01T17:36:06.599Z,49.82
2023-03-01T17:38:33.736Z,50.12
2023-03-01T17:41:01.421Z,49.90
2023-03-01T17:43:29.221Z,49.54
2023-03-01T17:45:57.603Z,49.79
2023-03-01T17:48:25.940Z,49.87
2023-03-01T17:50:53.275Z,49.75
2023-03-01T17:53:20.370Z,49.40
2023-03-01T17:55:49.814Z,49.88
2023-03-01T17:58:22.743Z,49.26
2023-03-01T18:00:51.057Z,49.18
2023-03-01T18:03:18.266Z,49.77
2023-03-01T18:05:45.309Z,49.73
2023-03-01T18:08:13.986Z,49.79
2023-03-01T18:10:41.036Z,49.80
2023-03-01T18:13:08.035Z,50.23
2023-03-01T18:15:35.132Z,50.07
2023-03-01T18:18:02.187Z,50.82
2023-03-01T18:20:30.923Z,50.75
2023-03-01T18:22:57.951Z,51.30
2023-03-01T18:25:24.948Z,51.44
2023-03-01T18:27:51.988Z,50.62
2023-03-01T18:30:19.050Z,51.21
2023-03-01T18:32:46.054Z,51.55
2023-03-01T18:35:13.046Z,50.94
2023-03-01T18:37:40.089Z,51.97
2023-03-01T18:40:08.229Z,51.93
2023-03-01T18:42:35.273Z,51.02
2023-03-01T18:45:02.337Z,51.48
2023-03-01T18:47:31.150Z,51.85
2023-03-01T18:49:58.156Z,51.91
2023-03-01T18:52:25.372Z,51.94
2023-03-01T18:54:52.350Z,51.58
2023-03-01T18:57:19.353Z,51.56
2023-03-01T18:59:46.387Z,51.82
2023-03-01T19:02:15.795Z,51.70
2023-03-01T19:04:43.413Z,51.78
2023-03-01T19:07:10.616Z,52.32
2023-03-01T19:09:37.690Z,52.64
2023-03-01T19:12:06.345Z,52.26
2023-03-01T19:14:33.465Z,52.45
2023-03-01T19:17:00.461Z,52.96
2023-03-01T19:19:27.565Z,52.82
2023-03-01T19:22:05.231Z,52.18
2023-03-01T19:24:33.092Z,52.06
2023-03-01T19:27:00.198Z,52.63
2023-03-01T19:29:27.431Z,51.82
2023-03-01T19:31:54.607Z,52.74
2023-03-01T19:34:23.059Z,52.79
2023-03-01T19:36:50.397Z,52.34
2023-03-01T19:39:17.462Z,52.18
2023-03-01T19:41:44.719Z,52.25
2023-03-01T19:44:13.074Z,52.98
2023-03-01T19:46:40.309Z,52.98
2023-03-01T19:49:08.272Z,53.70
2023-03-01T19:51:39.028Z,52.83
2023-03-01T19:54:06.731Z,52.69
2023-03-01T19:56:34.859Z,53.44
2023-03-01T19:59:04.583Z,52.93
2023-03-01T20:01:34.804Z,52.63
2023-03-01T20:04:02.772Z,53.56
2023-03-01T20:06:30.539Z,54.18
2023-03-01T20:08:58.672Z,53.72
2023-03-01T20:11:25.829Z,53.93
2023-03-01T20:13:52.962Z,53.90
2023-03-01T20:16:20.976Z,54.00
2023-03-01T20:18:48.041Z,53.60
2023-03-01T20:21:24.125Z,53.21
2023-03-01T20:23:52.401Z,53.72
2023-03-01T20:26:20.596Z,54.24
2023-03-01T20:28:49.697Z,54.27
2023-03-01T20:31:18.787Z,53.51
2023-03-01T20:33:46.411Z,53.74
2023-03-01T20:36:13.777Z,53.96
2023-03-01T20:38:40.863Z,53.33
2023-03-01T20:41:13.369Z,54.23
2023-03-01T20:43:43.722Z,54.44
2023-03-01T20:46:12.939Z,53.98
2023-03-01T20:48:43.360Z,54.48
2023-03-01T20:51:11.956Z,54.55
2023-03-01T20:53:39.235Z,54.81
2023-03-01T20:56:11.936Z,54.73
2023-03-01T20:58:39.709Z,54.80
2023-03-01T21:01:07.890Z,55.80
2023-03-01T21:03:36.021Z,55.61
2023-03-01T21:06:04.488Z,57.30
2023-03-01T21:08:31.896Z,57.21
2023-03-01T21:10:59.443Z,57.29
2023-03-01T21:13:27.291Z,56.88
2023-03-01T21:16:04.649Z,58.03
2023-03-01T21:18:32.693Z,57.78
2023-03-01T21:21:01.574Z,57.55
2023-03-01T21:23:30.623Z,58.23
2023-03-01T21:26:09.646Z,58.67
2023-03-01T21:28:38.053Z,59.22
2023-03-01T21:31:06.717Z,59.62
2023-03-01T21:33:34.818Z,59.59
2023-03-01T21:36:04.418Z,58.97
2023-03-01T21:38:35.527Z,58.54
2023-03-01T21:41:17.026Z,59.47
2023-03-01T21:43:46.522Z,58.68
2023-03-01T21:46:17.224Z,59.80
2023-03-01T21:48:46.322Z,60.27
2023-03-01T21:51:15.979Z,59.68
2023-03-01T21:53:43.591Z,60.09
2023-03-01T21:56:16.767Z,59.77
2023-03-01T21:58:43.851Z,59.95
2023-03-01T22:01:14.617Z,59.49
2023-03-01T22:03:47.441Z,60.25
2023-03-01T22:06:43.603Z,60.28
2023-03-01T22:09:13.659Z,60.21
2023-03-01T22:11:58.844Z,59.80
2023-03-01T22:14:26.631Z,60.51
2023-03-01T22:16:53.778Z,59.62
2023-03-01T22:19:22.052Z,60.10
2023-03-01T22:21:51.578Z,60.69
2023-03-01T22:24:21.348Z,59.94
2023-03-01T22:26:50.214Z,60.52
2023-03-01T22:29:23.542Z,60.31
2023-03-01T22:31:51.101Z,60.69
2023-03-01T22:34:19.260Z,59.94
2023-03-01T22:36:46.691Z,60.04
2023-03-01T22:39:15.885Z,59.61
2023-03-01T22:41:46.126Z,59.83
2023-03-01T22:44:18.583Z,60.29
2023-03-01T22:46:46.584Z,60.24
2023-03-01T22:49:13.908Z,59.56
2023-03-01T22:51:44.118Z,59.55
2023-03-01T22:54:11.684Z,59.05
2023-03-01T22:56:39.982Z,59.93
2023-03-01T22:59:10.753Z,59.55
2023-03-01T23:01:39.999Z,60.06
2023-03-01T23:04:07.556Z,59.78
2023-03-01T23:06:35.468Z,60.04
2023-03-01T23:09:04.683Z,60.47
2023-03-01T23:11:31.726Z,59.88
2023-03-01T23:13:59.599Z,60.06
2023-03-01T23:16:27.112Z,59.86
2023-03-01T23:19:00.581Z,60.12
2023-03-01T23:21:28.170Z,60.23
2023-03-01T23:23:56.224Z,59.86
2023-03-01T23:26:29.281Z,59.54
2023-03-01T23:28:57.487Z,59.35
2023-03-01T23:31:30.087Z,59.54
2023-03-01T23:33:57.476Z,60.07
2023-03-01T23:36:30.481Z,60.06
2023-03-01T23:39:00.706Z,59.80
2023-03-01T23:41:30.217Z,60.43
2023-03-01T23:43:59.687Z,60.40
2023-03-01T23:46:29.939Z,59.90
2023-03-01T23:48:57.661Z,60.05
2023-03-01T23:51:25.023Z,59.92
2023-03-01T23:54:00.176Z,59.74
2023-03-01T23:56:33.480Z,60.20
2023-03-01T23:59:13.508Z,60.27
